Lil Susan S — WBD8211 — position and weather

sailwx.info

Track history (hours):
 
Tides and Currents Weather Stations Pressure Air Temp Water Temp Dewpoint Dewpoint Depression Visibility Wind Speed Wind Dir Waves Ship Positions

Lil Susan S

Owner: S & W MARINE INC, LOCKPORT, LA. More information available from US FCC via Universal Licensing System and Coast Guard Vessel Documentation Center.

Last reported at 2017-Nov-16 05:22 UTC. Time now 2017-Nov-21 23:12 UTC.
Position N 29°33' W 090°24'.

Length 25 m; draft 2.6 m.

Type: Towing. MMSI: 367011790.

Date/timePositionNaut miles runAvg speedWind from/ knotsBaromVisibWave heightAir tempDewpointWater temp
2017-Nov-16 05:22N 29°33' W 090°24'3 7.8
2017-Nov-16 04:59N 29°33' W 090°28'4 7.9
2017-Nov-16 04:30N 29°34' W 090°32'3 6.6
2017-Nov-16 04:00N 29°35' W 090°36'4 7.4
2017-Nov-16 03:30N 29°36' W 090°40'3 5.1
2017-Nov-16 03:00N 29°36' W 090°43'1 2.9
2017-Nov-16 02:30N 29°34' W 090°43'3 5.2
2017-Nov-16 02:00N 29°33' W 090°45'4 7.2
2017-Nov-16 01:30N 29°32' W 090°50'4 7.9
2017-Nov-16 00:59N 29°33' W 090°54'57 6.8
2017-Nov-15 16:38N 29°51' W 091°56'1 7.9
2017-Nov-15 16:30N 29°50' W 091°57'4 7.8
2017-Nov-15 16:00N 29°49' W 092°01'4 7.8
2017-Nov-15 15:30N 29°48' W 092°06'4 7.5
2017-Nov-15 15:00N 29°47' W 092°10'2 4.5
2017-Nov-15 14:30N 29°47' W 092°12'1 1.9
2017-Nov-15 14:00N 29°48' W 092°13'0 0.2
2017-Nov-15 13:30N 29°48' W 092°13'0 0.0
2017-Nov-15 13:00N 29°48' W 092°13'0 0.0
2017-Nov-15 12:30N 29°48' W 092°13'0 0.7
2017-Nov-15 12:00N 29°48' W 092°14'3 5.3
2017-Nov-15 11:30N 29°49' W 092°17'5 7.2
2017-Nov-15 10:49N 29°51' W 092°22'37 5.4
2017-Nov-15 03:59N 29°56' W 093°04'4 7.1
2017-Nov-15 03:29N 29°56' W 093°08'3 7.0
2017-Nov-15 03:00N 29°58' W 093°11'4 7.1
2017-Nov-15 02:30N 30°01' W 093°14'3 6.8
2017-Nov-15 02:00N 30°04' W 093°16'2 4.3
2017-Nov-15 01:30N 30°05' W 093°18'1 1.4
2017-Nov-15 01:00N 30°06' W 093°18'0 0.0
2017-Nov-15 00:30N 30°06' W 093°18'0 0.1
2017-Nov-15 00:00N 30°06' W 093°18'3 6.1
2017-Nov-14 23:30N 30°03' W 093°20'4 8.9
2017-Nov-14 23:00N 29°59' W 093°20'10 1.8
2017-Nov-14 17:13N 29°48' W 093°21'2 7.7
2017-Nov-14 17:00N 29°50' W 093°21'4 7.8
2017-Nov-14 16:30N 29°54' W 093°21'4 8.2
2017-Nov-14 16:00N 29°58' W 093°20'3 6.8
2017-Nov-14 15:30N 30°01' W 093°20'3 6.5
2017-Nov-14 15:00N 30°04' W 093°20'2 3.7
2017-Nov-14 14:30N 30°06' W 093°18'1 2.1
2017-Nov-14 13:59N 30°05' W 093°17'1 2.0
2017-Nov-14 13:30N 30°04' W 093°16'1 2.3
2017-Nov-14 13:00N 30°03' W 093°16'3 5.8
2017-Nov-14 12:30N 30°01' W 093°14'46 5.9
2017-Nov-14 04:43N 29°51' W 092°22'2 6.5
2017-Nov-14 04:29N 29°51' W 092°20'3 5.9
2017-Nov-14 03:59N 29°49' W 092°17'3 6.8
2017-Nov-14 03:29N 29°48' W 092°13'1 2.1
2017-Nov-14 02:59N 29°47' W 092°12'1 1.6
2017-Nov-14 02:29N 29°47' W 092°12'0 0.1
2017-Nov-14 01:59N 29°47' W 092°12'1 1.1
2017-Nov-14 01:30N 29°47' W 092°11'0 0.3
2017-Nov-14 01:00N 29°47' W 092°11'0 0.0
2017-Nov-14 00:30N 29°47' W 092°11'0 0.0
2017-Nov-13 23:59N 29°47' W 092°11'0 0.1
2017-Nov-13 23:29N 29°47' W 092°11'0 0.1
2017-Nov-13 22:59N 29°47' W 092°11'0 0.0
2017-Nov-13 22:30N 29°47' W 092°11'0 0.0
2017-Nov-13 22:00N 29°47' W 092°11'  
Track history (hours):
 
Tides and Currents Weather Stations Pressure Air Temp Water Temp Dewpoint Dewpoint Depression Visibility Wind Speed Wind Dir Waves Ship Positions

Lil Susan S

Owner: S & W MARINE INC, LOCKPORT, LA. More information available from US FCC via Universal Licensing System and Coast Guard Vessel Documentation Center.

Last reported at 2017-Nov-16 05:22 UTC. Time now 2017-Nov-21 23:12 UTC.
Position N 29°33' W 090°24'.

Length 25 m; draft 2.6 m.

Type: Towing. MMSI: 367011790.

Date/timePositionNaut miles runAvg speedWind from/ knotsBaromVisibWave heightAir tempDewpointWater temp
2017-Nov-16 05:22N 29°33' W 090°24'3 7.8
2017-Nov-16 04:59N 29°33' W 090°28'4 7.9
2017-Nov-16 04:30N 29°34' W 090°32'3 6.6
2017-Nov-16 04:00N 29°35' W 090°36'4 7.4
2017-Nov-16 03:30N 29°36' W 090°40'3 5.1
2017-Nov-16 03:00N 29°36' W 090°43'1 2.9
2017-Nov-16 02:30N 29°34' W 090°43'3 5.2
2017-Nov-16 02:00N 29°33' W 090°45'4 7.2
2017-Nov-16 01:30N 29°32' W 090°50'4 7.9
2017-Nov-16 00:59N 29°33' W 090°54'57 6.8
2017-Nov-15 16:38N 29°51' W 091°56'1 7.9
2017-Nov-15 16:30N 29°50' W 091°57'4 7.8
2017-Nov-15 16:00N 29°49' W 092°01'4 7.8
2017-Nov-15 15:30N 29°48' W 092°06'4 7.5
2017-Nov-15 15:00N 29°47' W 092°10'2 4.5
2017-Nov-15 14:30N 29°47' W 092°12'1 1.9
2017-Nov-15 14:00N 29°48' W 092°13'0 0.2
2017-Nov-15 13:30N 29°48' W 092°13'0 0.0
2017-Nov-15 13:00N 29°48' W 092°13'0 0.0
2017-Nov-15 12:30N 29°48' W 092°13'0 0.7
2017-Nov-15 12:00N 29°48' W 092°14'3 5.3
2017-Nov-15 11:30N 29°49' W 092°17'5 7.2
2017-Nov-15 10:49N 29°51' W 092°22'37 5.4
2017-Nov-15 03:59N 29°56' W 093°04'4 7.1
2017-Nov-15 03:29N 29°56' W 093°08'3 7.0
2017-Nov-15 03:00N 29°58' W 093°11'4 7.1
2017-Nov-15 02:30N 30°01' W 093°14'3 6.8
2017-Nov-15 02:00N 30°04' W 093°16'2 4.3
2017-Nov-15 01:30N 30°05' W 093°18'1 1.4
2017-Nov-15 01:00N 30°06' W 093°18'0 0.0
2017-Nov-15 00:30N 30°06' W 093°18'0 0.1
2017-Nov-15 00:00N 30°06' W 093°18'3 6.1
2017-Nov-14 23:30N 30°03' W 093°20'4 8.9
2017-Nov-14 23:00N 29°59' W 093°20'10 1.8
2017-Nov-14 17:13N 29°48' W 093°21'2 7.7
2017-Nov-14 17:00N 29°50' W 093°21'4 7.8
2017-Nov-14 16:30N 29°54' W 093°21'4 8.2
2017-Nov-14 16:00N 29°58' W 093°20'3 6.8
2017-Nov-14 15:30N 30°01' W 093°20'3 6.5
2017-Nov-14 15:00N 30°04' W 093°20'2 3.7
2017-Nov-14 14:30N 30°06' W 093°18'1 2.1
2017-Nov-14 13:59N 30°05' W 093°17'1 2.0
2017-Nov-14 13:30N 30°04' W 093°16'1 2.3
2017-Nov-14 13:00N 30°03' W 093°16'3 5.8
2017-Nov-14 12:30N 30°01' W 093°14'46 5.9
2017-Nov-14 04:43N 29°51' W 092°22'2 6.5
2017-Nov-14 04:29N 29°51' W 092°20'3 5.9
2017-Nov-14 03:59N 29°49' W 092°17'3 6.8
2017-Nov-14 03:29N 29°48' W 092°13'1 2.1
2017-Nov-14 02:59N 29°47' W 092°12'1 1.6
2017-Nov-14 02:29N 29°47' W 092°12'0 0.1
2017-Nov-14 01:59N 29°47' W 092°12'1 1.1
2017-Nov-14 01:30N 29°47' W 092°11'0 0.3
2017-Nov-14 01:00N 29°47' W 092°11'0 0.0
2017-Nov-14 00:30N 29°47' W 092°11'0 0.0
2017-Nov-13 23:59N 29°47' W 092°11'0 0.1
2017-Nov-13 23:29N 29°47' W 092°11'0 0.1
2017-Nov-13 22:59N 29°47' W 092°11'0 0.0
2017-Nov-13 22:30N 29°47' W 092°11'0 0.0
2017-Nov-13 22:00N 29°47' W 092°11'  

Dump ship's entire track history